Time;durP1;ratioP1;P1;durP2;ratioP2;P2;SDS_P1;SDS_P2;PMS_P1;PMS_P2;Temp;Humidity;BMP_temperature;BMP_pressure;BME280_temperature;BME280_humidity;BME280_pressure;Samples;Min_cycle;Max_cycle;Signal;HPM_P1;HPM_P2
2024/01/01 00:00:32;;;;;;;5.63;2.63;;;8.90;99.90;;;;;;5008620;28;20460;-48
2024/01/01 00:03:00;;;;;;;5.30;2.90;;;8.90;99.90;;;;;;5006726;28;20515;-46
2024/01/01 00:05:28;;;;;;;5.80;3.23;;;8.90;99.90;;;;;;5007876;28;20916;-48
2024/01/01 00:07:57;;;;;;;4.10;3.00;;;8.90;99.90;;;;;;5007783;28;20465;-52
2024/01/01 00:10:26;;;;;;;5.17;4.13;;;8.90;99.90;;;;;;5007920;28;20492;-50
2024/01/01 00:12:54;;;;;;;5.07;2.40;;;8.90;99.90;;;;;;5006814;28;20542;-50
2024/01/01 00:15:22;;;;;;;4.13;2.30;;;8.90;99.90;;;;;;5007724;28;20495;-47
2024/01/01 00:17:52;;;;;;;5.00;3.00;;;8.90;99.90;;;;;;5008127;28;20463;-47
2024/01/01 00:20:21;;;;;;;4.50;3.00;;;8.90;99.90;;;;;;5007606;28;20465;-46
2024/01/01 00:22:49;;;;;;;4.30;2.20;;;8.90;99.90;;;;;;5003448;28;21007;-49
2024/01/01 00:25:18;;;;;;;3.27;2.00;;;8.90;99.90;;;;;;5007088;28;20939;-47
2024/01/01 00:27:46;;;;;;;3.30;2.73;;;8.90;99.90;;;;;;5007671;28;20878;-47
2024/01/01 00:30:14;;;;;;;4.00;2.70;;;8.90;99.90;;;;;;5006863;28;21047;-47
2024/01/01 00:32:42;;;;;;;6.03;2.57;;;8.90;99.90;;;;;;5010902;28;20482;-46
2024/01/01 00:35:12;;;;;;;3.80;2.80;;;8.90;99.90;;;;;;5012301;28;20472;-51
2024/01/01 00:37:40;;;;;;;4.47;2.10;;;8.90;99.90;;;;;;5005140;28;21048;-49
2024/01/01 00:40:10;;;;;;;4.70;2.43;;;8.90;99.90;;;;;;5010054;28;20464;-51
2024/01/01 00:42:38;;;;;;;3.43;2.80;;;8.90;99.90;;;;;;5005187;28;20476;-47
2024/01/01 00:45:07;;;;;;;4.37;2.70;;;8.90;99.90;;;;;;5010377;28;20495;-48
2024/01/01 00:47:35;;;;;;;4.63;2.63;;;8.90;99.90;;;;;;5011749;28;20460;-50
2024/01/01 00:50:04;;;;;;;3.97;2.27;;;8.90;99.90;;;;;;5012311;28;20453;-46
2024/01/01 00:52:33;;;;;;;11.33;2.47;;;8.90;99.90;;;;;;5003358;28;20480;-45
2024/01/01 00:55:03;;;;;;;4.93;2.00;;;8.90;99.90;;;;;;5012515;28;20465;-47
2024/01/01 00:57:31;;;;;;;4.87;2.70;;;8.90;99.90;;;;;;5011928;28;20487;-47
2024/01/01 00:59:59;;;;;;;3.40;2.23;;;8.90;99.90;;;;;;5017140;28;20460;-47
2024/01/01 01:02:27;;;;;;;3.10;2.70;;;8.90;99.90;;;;;;5022867;28;20463;-52
2024/01/01 01:04:55;;;;;;;5.10;2.60;;;8.90;99.90;;;;;;5019785;28;20503;-49
2024/01/01 01:07:36;;;;;;;5.90;2.40;;;8.90;99.90;;;;;;5007608;28;20913;-49
2024/01/01 01:10:04;;;;;;;4.00;2.47;;;8.90;99.90;;;;;;5010749;28;20470;-47
2024/01/01 01:12:32;;;;;;;5.47;2.40;;;8.90;99.90;;;;;;5009373;28;20468;-47
2024/01/01 01:15:00;;;;;;;2.93;2.30;;;8.90;99.90;;;;;;5008321;28;20472;-46
2024/01/01 01:17:28;;;;;;;3.33;2.00;;;8.90;99.90;;;;;;5009270;28;20460;-45
2024/01/01 01:19:56;;;;;;;3.20;2.03;;;8.90;99.90;;;;;;5004615;28;20989;-48
2024/01/01 01:22:24;;;;;;;4.73;2.43;;;8.90;99.90;;;;;;5005863;28;20477;-50
2024/01/01 01:24:55;;;;;;;4.73;2.70;;;8.90;99.90;;;;;;5006541;28;20437;-47
2024/01/01 01:27:23;;;;;;;4.20;2.30;;;8.90;99.90;;;;;;5011473;28;20928;-48
2024/01/01 01:29:51;;;;;;;6.23;3.00;;;8.90;99.90;;;;;;5009172;28;20526;-48
2024/01/01 01:32:19;;;;;;;5.70;1.90;;;8.90;99.90;;;;;;5009922;28;20471;-47
2024/01/01 01:34:48;;;;;;;4.87;2.07;;;8.90;99.90;;;;;;5009430;28;20548;-49
2024/01/01 01:37:16;;;;;;;6.40;2.33;;;8.90;99.90;;;;;;5011193;28;20539;-48
2024/01/01 01:39:46;;;;;;;3.20;2.00;;;8.90;99.90;;;;;;5005982;28;20562;-48
2024/01/01 01:42:17;;;;;;;3.30;1.83;;;8.90;99.90;;;;;;5013689;28;20458;-46
2024/01/01 01:44:45;;;;;;;5.67;2.13;;;8.90;99.90;;;;;;5008488;28;20448;-48
2024/01/01 01:47:13;;;;;;;3.50;2.10;;;8.90;99.90;;;;;;5002984;28;20511;-47
2024/01/01 01:49:42;;;;;;;4.83;1.90;;;8.90;99.90;;;;;;5010307;28;20464;-47
2024/01/01 01:52:11;;;;;;;3.00;1.90;;;8.90;99.90;;;;;;5006544;28;20481;-49
2024/01/01 01:54:41;;;;;;;4.40;2.00;;;8.90;99.90;;;;;;5008574;28;20487;-47
2024/01/01 01:57:09;;;;;;;3.33;2.17;;;8.90;99.90;;;;;;5010644;28;21048;-48
2024/01/01 01:59:39;;;;;;;6.43;2.20;;;8.90;99.90;;;;;;5002312;28;20551;-47
2024/01/01 02:02:07;;;;;;;3.40;1.57;;;8.90;99.90;;;;;;5010796;28;20468;-46
2024/01/01 02:04:35;;;;;;;3.90;2.87;;;8.90;99.90;;;;;;5010786;28;20524;-46
2024/01/01 02:07:03;;;;;;;3.90;1.80;;;8.90;99.90;;;;;;5007894;28;20485;-46
2024/01/01 02:09:32;;;;;;;4.20;1.80;;;8.90;99.90;;;;;;5008904;28;20441;-48
2024/01/01 02:12:00;;;;;;;3.83;2.37;;;8.90;99.90;;;;;;5007690;28;20465;-47
2024/01/01 02:14:29;;;;;;;2.90;2.37;;;8.90;99.90;;;;;;5005537;28;20441;-50
2024/01/01 02:16:59;;;;;;;4.50;2.17;;;8.90;99.90;;;;;;5008360;28;21003;-46
2024/01/01 02:19:28;;;;;;;4.73;2.10;;;8.90;99.90;;;;;;5008636;28;20437;-48
2024/01/01 02:21:57;;;;;;;4.37;2.20;;;8.90;99.90;;;;;;5009017;28;20864;-48
2024/01/01 02:24:28;;;;;;;4.00;1.80;;;8.90;99.90;;;;;;5007045;28;20993;-49
2024/01/01 02:26:56;;;;;;;5.60;1.77;;;8.90;99.90;;;;;;5010200;28;20469;-48
2024/01/01 02:29:24;;;;;;;2.33;1.40;;;8.90;99.90;;;;;;5022631;28;20477;-50
2024/01/01 02:31:52;;;;;;;4.73;2.10;;;8.90;99.90;;;;;;5009996;28;20523;-46
2024/01/01 02:34:22;;;;;;;3.10;1.67;;;8.90;99.90;;;;;;5008311;28;21016;-49
2024/01/01 02:36:50;;;;;;;3.10;1.73;;;8.90;99.90;;;;;;5004499;28;20477;-45
2024/01/01 02:39:18;;;;;;;5.43;1.67;;;8.90;99.90;;;;;;5008726;28;20434;-46
2024/01/01 02:41:47;;;;;;;4.93;2.07;;;8.90;99.90;;;;;;5008816;28;20476;-47
2024/01/01 02:44:17;;;;;;;4.20;2.27;;;8.90;99.90;;;;;;5006925;28;20480;-47
2024/01/01 02:46:46;;;;;;;3.93;2.60;;;8.90;99.90;;;;;;5025017;28;20461;-48
2024/01/01 02:49:15;;;;;;;10.77;1.93;;;8.90;99.90;;;;;;5009950;28;20897;-47
2024/01/01 02:51:44;;;;;;;4.57;1.50;;;8.90;99.90;;;;;;5005898;28;20495;-46
2024/01/01 02:54:12;;;;;;;4.07;2.10;;;8.90;99.90;;;;;;5009442;28;20927;-47
2024/01/01 02:56:40;;;;;;;3.07;1.90;;;8.90;99.90;;;;;;5002723;28;20511;-45
2024/01/01 02:59:09;;;;;;;3.40;1.80;;;8.80;99.90;;;;;;5007790;28;20962;-46
2024/01/01 03:01:38;;;;;;;3.70;2.10;;;8.80;99.90;;;;;;5017245;28;20522;-47
2024/01/01 03:04:06;;;;;;;6.10;2.00;;;8.90;99.90;;;;;;5008480;28;20433;-48
2024/01/01 03:06:34;;;;;;;7.13;2.43;;;8.80;99.90;;;;;;5005373;28;20482;-47
2024/01/01 03:09:02;;;;;;;2.87;1.60;;;8.80;99.90;;;;;;5004983;28;20777;-46
2024/01/01 03:11:31;;;;;;;4.00;2.00;;;8.80;99.90;;;;;;4999593;28;20681;-47
2024/01/01 03:13:58;;;;;;;7.07;2.10;;;8.80;99.90;;;;;;5005863;28;20551;-46
2024/01/01 03:16:28;;;;;;;6.43;1.90;;;8.80;99.90;;;;;;5007243;28;20477;-47
2024/01/01 03:18:56;;;;;;;4.97;2.03;;;8.80;99.90;;;;;;5008264;28;20445;-47
2024/01/01 03:21:24;;;;;;;2.80;1.80;;;8.80;99.90;;;;;;5001820;28;20836;-49
2024/01/01 03:23:54;;;;;;;5.67;1.70;;;8.80;99.90;;;;;;5007392;28;20525;-48
2024/01/01 03:26:22;;;;;;;6.30;2.33;;;8.80;99.90;;;;;;5007671;28;20489;-47
2024/01/01 03:28:51;;;;;;;3.50;1.50;;;8.80;99.90;;;;;;5005780;28;20930;-47
2024/01/01 03:31:19;;;;;;;3.30;2.20;;;8.80;99.90;;;;;;5007378;28;20492;-49
2024/01/01 03:33:49;;;;;;;3.77;1.80;;;8.80;99.90;;;;;;5007793;28;20426;-47
2024/01/01 03:36:17;;;;;;;3.33;1.80;;;8.80;99.90;;;;;;5007506;28;20469;-47
2024/01/01 03:38:45;;;;;;;3.40;2.00;;;8.80;99.90;;;;;;5006069;28;20533;-45
2024/01/01 03:41:13;;;;;;;5.00;2.17;;;8.80;99.90;;;;;;5007133;28;20530;-45
2024/01/01 03:43:42;;;;;;;2.80;1.63;;;8.80;99.90;;;;;;5005760;28;20524;-47
2024/01/01 03:46:10;;;;;;;4.17;1.80;;;8.80;99.90;;;;;;5000596;28;20978;-49
2024/01/01 03:48:38;;;;;;;3.67;1.60;;;8.80;99.90;;;;;;5001885;28;20524;-47
2024/01/01 03:51:08;;;;;;;4.00;1.67;;;8.80;99.90;;;;;;5008735;28;20456;-46
2024/01/01 03:53:36;;;;;;;4.73;1.73;;;8.80;99.90;;;;;;5005396;28;20516;-45
2024/01/01 03:56:06;;;;;;;4.30;1.63;;;8.80;99.90;;;;;;5023540;28;20487;-48
2024/01/01 03:58:36;;;;;;;4.57;2.43;;;8.80;99.90;;;;;;5006271;28;20441;-46
2024/01/01 04:01:11;;;;;;;3.50;1.57;;;8.80;99.90;;;;;;5007431;28;20464;-46
2024/01/01 04:03:39;;;;;;;4.03;2.47;;;8.80;99.90;;;;;;5002463;28;20439;-47
2024/01/01 04:06:09;;;;;;;4.73;1.47;;;8.80;99.90;;;;;;5007296;28;20417;-47
2024/01/01 04:08:38;;;;;;;3.13;1.60;;;8.80;99.90;;;;;;5011640;28;20511;-46
2024/01/01 04:11:06;;;;;;;7.63;1.80;;;8.80;99.90;;;;;;5006725;28;20850;-49
2024/01/01 04:13:34;;;;;;;6.00;1.67;;;8.80;99.90;;;;;;5003831;28;20449;-49
2024/01/01 04:16:02;;;;;;;5.70;1.67;;;8.80;99.90;;;;;;5006730;28;20463;-50
2024/01/01 04:18:30;;;;;;;4.37;1.70;;;8.80;99.90;;;;;;5007057;28;20926;-49
2024/01/01 04:20:59;;;;;;;6.00;1.83;;;8.80;99.90;;;;;;5004291;28;20456;-46
2024/01/01 04:23:29;;;;;;;5.50;1.60;;;8.80;99.90;;;;;;5006439;28;20433;-47
2024/01/01 04:25:57;;;;;;;3.07;1.67;;;8.80;99.90;;;;;;5008348;28;20425;-48
2024/01/01 04:28:25;;;;;;;3.37;1.30;;;8.80;99.90;;;;;;5005730;28;20970;-45
2024/01/01 04:30:54;;;;;;;2.90;1.50;;;8.80;99.90;;;;;;5008871;28;20442;-49
2024/01/01 04:33:23;;;;;;;6.00;1.77;;;8.80;99.90;;;;;;5007648;28;20463;-47
2024/01/01 04:35:52;;;;;;;5.72;1.90;;;8.80;99.90;;;;;;5008546;28;20542;-49
2024/01/01 04:38:20;;;;;;;4.43;1.80;;;8.80;99.90;;;;;;5007104;28;20222;-46
2024/01/01 04:40:50;;;;;;;5.90;1.80;;;8.80;99.90;;;;;;5009008;28;20455;-47
2024/01/01 04:43:18;;;;;;;5.20;1.97;;;8.80;99.90;;;;;;5004531;28;21014;-47
2024/01/01 04:45:46;;;;;;;6.23;2.87;;;8.80;99.90;;;;;;5008801;28;20898;-47
2024/01/01 04:48:15;;;;;;;2.37;1.50;;;8.80;99.90;;;;;;5007874;28;21010;-47
2024/01/01 04:50:43;;;;;;;4.23;1.90;;;8.80;99.90;;;;;;5008560;28;21040;-46
2024/01/01 04:53:11;;;;;;;7.80;2.20;;;8.80;99.90;;;;;;5002320;28;20474;-47
2024/01/01 04:55:39;;;;;;;8.77;2.67;;;8.80;99.90;;;;;;5004839;28;20437;-48
2024/01/01 04:58:09;;;;;;;4.73;1.80;;;8.80;99.90;;;;;;5005216;28;20453;-48
2024/01/01 05:00:37;;;;;;;5.33;2.07;;;8.80;99.90;;;;;;5008242;28;20472;-48
2024/01/01 05:03:05;;;;;;;9.50;2.90;;;8.80;99.90;;;;;;5007748;28;20456;-46
2024/01/01 05:05:33;;;;;;;5.57;2.30;;;8.80;99.90;;;;;;5005709;28;20433;-46
2024/01/01 05:08:01;;;;;;;3.23;1.77;;;8.80;99.90;;;;;;5004164;28;20468;-48
2024/01/01 05:10:30;;;;;;;5.73;2.33;;;8.80;99.90;;;;;;5007606;28;20532;-47
2024/01/01 05:12:58;;;;;;;5.57;1.53;;;8.80;99.90;;;;;;5005909;28;20456;-47
2024/01/01 05:15:27;;;;;;;6.17;1.93;;;8.80;99.90;;;;;;5007140;28;20537;-46
2024/01/01 05:17:55;;;;;;;4.43;1.70;;;8.80;99.90;;;;;;5010268;28;20464;-46
2024/01/01 05:20:24;;;;;;;3.77;1.70;;;8.80;99.90;;;;;;5011554;28;20584;-46
2024/01/01 05:22:52;;;;;;;4.10;1.70;;;8.80;99.90;;;;;;5008025;28;20575;-46
2024/01/01 05:25:21;;;;;;;5.90;2.10;;;8.80;99.90;;;;;;5011622;28;20801;-47
2024/01/01 05:27:49;;;;;;;3.70;1.20;;;8.80;99.90;;;;;;5011359;28;20457;-45
2024/01/01 05:30:17;;;;;;;3.37;1.43;;;8.80;99.90;;;;;;5009271;28;20464;-48
2024/01/01 05:32:47;;;;;;;4.30;1.50;;;8.80;99.90;;;;;;5011156;28;20469;-48
2024/01/01 05:35:16;;;;;;;3.13;1.70;;;8.80;99.90;;;;;;5011413;28;21030;-48
2024/01/01 05:37:44;;;;;;;4.30;2.00;;;8.80;99.90;;;;;;5003459;28;20476;-47
2024/01/01 05:40:13;;;;;;;2.70;1.40;;;8.80;99.90;;;;;;5011638;28;20445;-50
2024/01/01 05:42:41;;;;;;;2.57;1.70;;;8.80;99.90;;;;;;5010312;28;20475;-48
2024/01/01 05:45:09;;;;;;;3.90;1.53;;;8.80;99.90;;;;;;5008371;28;20865;-46
2024/01/01 05:47:38;;;;;;;3.70;1.70;;;8.80;99.90;;;;;;5008037;28;20461;-47
2024/01/01 05:50:08;;;;;;;2.73;1.43;;;8.80;99.90;;;;;;5011172;28;20452;-48
2024/01/01 05:52:37;;;;;;;3.60;1.87;;;8.80;99.90;;;;;;5001645;28;20469;-47
2024/01/01 05:55:05;;;;;;;3.73;1.20;;;8.80;99.90;;;;;;5011375;28;20942;-46
2024/01/01 05:57:33;;;;;;;4.43;2.30;;;8.80;99.90;;;;;;5009853;28;20476;-45
2024/01/01 06:00:03;;;;;;;4.20;1.50;;;8.80;99.90;;;;;;5008408;28;20531;-46
2024/01/01 06:02:31;;;;;;;8.30;3.17;;;8.80;99.90;;;;;;5010359;28;20507;-45
2024/01/01 06:05:02;;;;;;;5.17;1.77;;;8.80;99.90;;;;;;5010765;28;20441;-48
2024/01/01 06:07:32;;;;;;;4.07;1.93;;;8.80;99.90;;;;;;5009755;28;20461;-49
2024/01/01 06:10:00;;;;;;;3.47;1.53;;;8.80;99.90;;;;;;5008600;28;20464;-46
2024/01/01 06:12:28;;;;;;;5.17;1.70;;;8.80;99.90;;;;;;5008573;28;20507;-53
2024/01/01 06:14:56;;;;;;;3.03;1.40;;;8.80;99.90;;;;;;5007975;28;20476;-50
2024/01/01 06:17:24;;;;;;;3.50;2.20;;;8.80;99.90;;;;;;5008475;28;20481;-48
2024/01/01 06:19:53;;;;;;;3.33;1.43;;;8.70;99.90;;;;;;5009331;28;20472;-48
2024/01/01 06:22:21;;;;;;;3.80;1.57;;;8.80;99.90;;;;;;5007321;28;20468;-48
2024/01/01 06:24:50;;;;;;;4.03;2.07;;;8.70;99.90;;;;;;5009437;28;20425;-48
2024/01/01 06:27:18;;;;;;;6.70;2.10;;;8.70;99.90;;;;;;5010997;28;20460;-50
2024/01/01 06:29:47;;;;;;;7.10;1.83;;;8.80;99.90;;;;;;5007384;28;20534;-48
2024/01/01 06:32:15;;;;;;;4.03;1.60;;;8.70;99.90;;;;;;5009972;28;20464;-49
2024/01/01 06:34:46;;;;;;;2.93;1.50;;;8.80;99.90;;;;;;5010522;28;20451;-51
2024/01/01 06:37:14;;;;;;;6.73;1.73;;;8.70;99.90;;;;;;5001734;28;20871;-49
2024/01/01 06:39:42;;;;;;;2.27;1.57;;;8.80;99.90;;;;;;5010471;28;20537;-50
2024/01/01 06:42:12;;;;;;;6.50;1.97;;;8.80;99.90;;;;;;5011342;28;20468;-50
2024/01/01 06:44:44;;;;;;;3.53;1.27;;;8.80;99.90;;;;;;5004027;28;20910;-47
2024/01/01 06:47:12;;;;;;;5.90;1.30;;;8.80;99.90;;;;;;5009604;28;20830;-47
2024/01/01 06:49:40;;;;;;;3.20;1.33;;;8.80;99.90;;;;;;5002915;28;20515;-50
2024/01/01 06:52:08;;;;;;;4.80;1.60;;;8.80;99.90;;;;;;5010328;28;20928;-48
2024/01/01 06:54:39;;;;;;;2.87;1.20;;;8.80;99.90;;;;;;5003666;28;20459;-47
2024/01/01 06:57:07;;;;;;;4.00;1.60;;;8.70;99.90;;;;;;5008641;28;21012;-48
2024/01/01 06:59:37;;;;;;;2.97;1.67;;;8.80;99.90;;;;;;5007115;28;20456;-47
2024/01/01 07:02:06;;;;;;;5.10;1.33;;;8.80;99.90;;;;;;5009779;28;21067;-50
2024/01/01 07:04:34;;;;;;;3.43;1.87;;;8.80;99.90;;;;;;5010036;28;20433;-50
2024/01/01 07:07:03;;;;;;;6.10;1.40;;;8.70;99.90;;;;;;5007053;28;20465;-44
2024/01/01 07:09:31;;;;;;;6.80;1.37;;;8.70;99.90;;;;;;5009320;28;20479;-49
2024/01/01 07:11:59;;;;;;;3.73;1.40;;;8.70;99.90;;;;;;5011915;28;20467;-46
2024/01/01 07:14:27;;;;;;;3.20;1.87;;;8.70;99.90;;;;;;4999860;28;20460;-48
2024/01/01 07:16:57;;;;;;;2.00;1.10;;;8.70;99.90;;;;;;5007514;28;20491;-49
2024/01/01 07:19:25;;;;;;;5.67;2.27;;;8.80;99.90;;;;;;5009200;28;20481;-46
2024/01/01 07:21:53;;;;;;;4.00;1.30;;;8.70;99.90;;;;;;5003452;28;20461;-50
2024/01/01 07:24:21;;;;;;;3.23;1.40;;;8.70;99.90;;;;;;5010089;28;20433;-47
2024/01/01 07:26:49;;;;;;;3.30;1.30;;;8.70;99.90;;;;;;5008246;28;20464;-48
2024/01/01 07:29:18;;;;;;;2.63;1.13;;;8.70;99.90;;;;;;5009543;28;20542;-46
2024/01/01 07:31:46;;;;;;;4.53;1.57;;;8.70;99.90;;;;;;5006792;28;20861;-47
2024/01/01 07:34:18;;;;;;;4.27;1.77;;;8.70;99.90;;;;;;5008776;28;20447;-47
2024/01/01 07:36:47;;;;;;;3.20;1.10;;;8.70;99.90;;;;;;5007877;28;20488;-45
2024/01/01 07:39:19;;;;;;;1.83;1.43;;;8.70;99.90;;;;;;5005891;28;20472;-47
2024/01/01 07:41:47;;;;;;;6.93;1.30;;;8.70;99.90;;;;;;5007370;28;20515;-46
2024/01/01 07:44:15;;;;;;;4.27;1.60;;;8.70;99.90;;;;;;5006054;28;20449;-44
2024/01/01 07:46:44;;;;;;;4.20;1.50;;;8.70;99.90;;;;;;5009154;28;20556;-48
2024/01/01 07:49:12;;;;;;;2.43;1.30;;;8.70;99.90;;;;;;5008569;28;20809;-48
2024/01/01 07:51:42;;;;;;;2.87;1.20;;;8.70;99.90;;;;;;4998704;28;20475;-48
2024/01/01 07:54:10;;;;;;;2.90;1.43;;;8.70;99.90;;;;;;5004742;28;20434;-46
2024/01/01 07:56:43;;;;;;;3.70;1.13;;;8.70;99.90;;;;;;5019731;28;20465;-46
2024/01/01 07:59:12;;;;;;;5.13;1.13;;;8.70;99.90;;;;;;5007738;28;20461;-47
2024/01/01 08:01:41;;;;;;;2.33;1.27;;;8.70;99.90;;;;;;5005023;28;20555;-47
2024/01/01 08:04:09;;;;;;;1.93;1.00;;;8.70;99.90;;;;;;5006559;28;20433;-46
2024/01/01 08:06:37;;;;;;;2.27;1.27;;;8.70;99.90;;;;;;5007286;28;20974;-48
2024/01/01 08:09:06;;;;;;;2.70;1.13;;;8.70;99.90;;;;;;5005113;28;20450;-45
2024/01/01 08:11:34;;;;;;;2.87;1.10;;;8.70;99.90;;;;;;5007098;28;20240;-47
2024/01/01 08:14:02;;;;;;;1.80;0.90;;;8.70;99.90;;;;;;5004409;28;20445;-49
2024/01/01 08:16:34;;;;;;;1.90;0.83;;;8.70;99.90;;;;;;5006433;28;20974;-47
2024/01/01 08:19:03;;;;;;;5.37;1.40;;;8.70;99.90;;;;;;5007456;28;20493;-47
2024/01/01 08:21:31;;;;;;;4.90;1.37;;;8.70;99.90;;;;;;5005522;28;20473;-45
2024/01/01 08:24:00;;;;;;;2.30;1.20;;;8.70;99.90;;;;;;5003076;28;20447;-46
2024/01/01 08:26:29;;;;;;;4.20;1.60;;;8.70;99.90;;;;;;5007528;28;20487;-46
2024/01/01 08:28:58;;;;;;;2.37;1.00;;;8.70;99.90;;;;;;5003065;28;20443;-47
2024/01/01 08:31:27;;;;;;;4.53;1.23;;;8.70;99.90;;;;;;5006455;28;20465;-48
2024/01/01 08:33:55;;;;;;;1.97;0.90;;;8.70;99.90;;;;;;5008937;28;20444;-45
2024/01/01 08:36:25;;;;;;;3.97;1.10;;;8.70;99.90;;;;;;5007050;28;20602;-46
2024/01/01 08:38:54;;;;;;;2.33;0.90;;;8.70;99.90;;;;;;5017798;28;20480;-46
2024/01/01 08:41:22;;;;;;;2.03;0.97;;;8.70;99.90;;;;;;5007947;28;20588;-46
2024/01/01 08:43:56;;;;;;;2.83;0.80;;;8.70;99.90;;;;;;5006610;28;20451;-48
2024/01/01 08:46:25;;;;;;;2.47;1.50;;;8.70;99.90;;;;;;5007589;28;20460;-48
2024/01/01 08:48:53;;;;;;;4.80;1.00;;;8.70;99.90;;;;;;5008801;28;20441;-46
2024/01/01 08:51:21;;;;;;;2.50;1.00;;;8.70;99.90;;;;;;5006018;28;20819;-47
2024/01/01 08:53:50;;;;;;;6.50;1.27;;;8.70;99.90;;;;;;5011487;28;20437;-45
2024/01/01 08:56:18;;;;;;;3.30;1.10;;;8.70;99.90;;;;;;5011100;28;20456;-46
2024/01/01 08:58:46;;;;;;;3.10;1.57;;;8.70;99.90;;;;;;5025756;28;20457;-47
2024/01/01 09:01:16;;;;;;;4.50;1.87;;;8.70;99.90;;;;;;5011539;28;20502;-47
2024/01/01 09:03:44;;;;;;;4.60;1.00;;;8.70;99.90;;;;;;5019088;28;20888;-48
2024/01/01 09:06:12;;;;;;;3.25;1.50;;;8.70;99.90;;;;;;5013311;28;20977;-45
2024/01/01 09:08:43;;;;;;;2.50;1.13;;;8.70;99.90;;;;;;5002910;28;20664;-49
2024/01/01 09:11:11;;;;;;;2.33;0.90;;;8.70;99.90;;;;;;5002089;28;20480;-48
2024/01/01 09:13:40;;;;;;;2.90;1.23;;;8.70;99.90;;;;;;5006277;28;20877;-48
2024/01/01 09:16:09;;;;;;;4.20;1.07;;;8.60;99.90;;;;;;5009836;28;20428;-47
2024/01/01 09:18:38;;;;;;;2.10;1.27;;;8.60;99.90;;;;;;5015691;28;20539;-51
2024/01/01 09:21:14;;;;;;;3.13;1.13;;;8.60;99.90;;;;;;5010444;28;20810;-45
2024/01/01 09:23:42;;;;;;;2.67;0.80;;;8.70;99.90;;;;;;5008661;28;20424;-46
2024/01/01 09:26:10;;;;;;;2.00;0.90;;;8.70;99.90;;;;;;5011608;28;20880;-46
2024/01/01 09:28:41;;;;;;;2.60;1.20;;;8.60;99.90;;;;;;4996390;28;20830;-48
2024/01/01 09:31:09;;;;;;;1.47;0.70;;;8.60;99.90;;;;;;5014947;28;20822;-47
2024/01/01 09:33:40;;;;;;;4.87;1.40;;;8.60;99.90;;;;;;5011146;28;20432;-47
2024/01/01 09:36:08;;;;;;;2.77;1.37;;;8.60;99.90;;;;;;5007741;28;20470;-46
2024/01/01 09:38:37;;;;;;;2.47;1.00;;;8.70;99.90;;;;;;5011477;28;20834;-46
2024/01/01 09:41:05;;;;;;;3.50;1.13;;;8.60;99.90;;;;;;5012445;28;20310;-46
2024/01/01 09:43:33;;;;;;;2.10;1.07;;;8.60;99.90;;;;;;5009198;28;20548;-47
2024/01/01 09:46:02;;;;;;;3.63;1.10;;;8.60;99.90;;;;;;5011229;28;20436;-49
2024/01/01 09:48:30;;;;;;;2.07;0.93;;;8.60;99.90;;;;;;5010762;28;20202;-46
2024/01/01 09:51:02;;;;;;;2.73;1.47;;;8.60;99.90;;;;;;5001655;28;20510;-46
2024/01/01 09:53:31;;;;;;;1.92;1.00;;;8.70;99.90;;;;;;5025138;28;20836;-45
2024/01/01 09:56:00;;;;;;;3.67;1.07;;;8.70;99.90;;;;;;5010172;28;20247;-46
2024/01/01 09:58:29;;;;;;;2.63;0.70;;;8.70;99.90;;;;;;5007572;28;20449;-45
2024/01/01 10:01:09;;;;;;;6.53;1.30;;;8.70;99.90;;;;;;5010867;28;20824;-47
2024/01/01 10:03:37;;;;;;;3.57;1.00;;;8.70;99.90;;;;;;5007860;28;20206;-47
2024/01/01 10:06:10;;;;;;;2.20;0.80;;;8.70;99.90;;;;;;5009598;28;20425;-46
2024/01/01 10:08:39;;;;;;;1.93;0.90;;;8.70;99.90;;;;;;5010640;28;20434;-45
2024/01/01 10:11:16;;;;;;;2.00;1.13;;;8.70;99.90;;;;;;5008470;28;20533;-47
2024/01/01 10:13:44;;;;;;;5.20;1.40;;;8.70;99.90;;;;;;5006517;28;20459;-48
2024/01/01 10:16:26;;;;;;;1.90;1.13;;;8.60;99.90;;;;;;5008883;28;20805;-46
2024/01/01 10:18:56;;;;;;;2.40;1.23;;;8.60;99.90;;;;;;5003659;28;20444;-47
2024/01/01 10:21:30;;;;;;;4.07;0.93;;;8.70;99.90;;;;;;5007232;28;20292;-45
2024/01/01 10:24:00;;;;;;;4.23;1.10;;;8.70;99.90;;;;;;5008219;28;20524;-45
2024/01/01 10:26:39;;;;;;;1.87;1.10;;;8.60;99.90;;;;;;5008753;28;20609;-45
2024/01/01 10:29:11;;;;;;;2.13;0.80;;;8.60;99.90;;;;;;5007797;28;20437;-45
2024/01/01 10:31:44;;;;;;;2.30;1.03;;;8.60;99.90;;;;;;5009530;28;20474;-45
2024/01/01 10:34:16;;;;;;;4.63;1.33;;;8.60;99.90;;;;;;5007318;28;20437;-45
2024/01/01 10:36:46;;;;;;;2.70;1.07;;;8.60;99.90;;;;;;5012053;28;20467;-45
2024/01/01 10:39:15;;;;;;;2.87;1.37;;;8.60;99.90;;;;;;5010696;28;20469;-44
2024/01/01 10:41:47;;;;;;;2.53;1.10;;;8.70;99.90;;;;;;5009883;28;20917;-45
2024/01/01 10:44:15;;;;;;;2.23;0.70;;;8.60;99.90;;;;;;5007354;28;20194;-45
2024/01/01 10:46:47;;;;;;;2.40;1.13;;;8.60;99.90;;;;;;5009720;28;20464;-45
2024/01/01 10:49:23;;;;;;;1.77;0.80;;;8.60;99.90;;;;;;5010039;28;20490;-47
2024/01/01 10:52:03;;;;;;;2.73;1.07;;;8.60;99.90;;;;;;4998822;28;20477;-46
2024/01/01 10:55:11;;;;;;;3.37;1.20;;;8.60;99.90;;;;;;5023409;28;20490;-51
2024/01/01 10:57:59;;;;;;;2.73;0.93;;;8.60;99.90;;;;;;5007842;28;20564;-47
2024/01/01 11:00:35;;;;;;;2.58;1.00;;;8.60;99.90;;;;;;5023604;28;20477;-47
2024/01/01 11:03:04;;;;;;;2.70;0.90;;;8.60;99.90;;;;;;5008821;28;20213;-47
2024/01/01 11:05:34;;;;;;;2.55;0.90;;;8.60;99.90;;;;;;5009513;28;20452;-47
2024/01/01 11:08:05;;;;;;;4.47;1.52;;;8.60;99.90;;;;;;5007418;28;20249;-47
2024/01/01 11:10:38;;;;;;;3.57;1.27;;;8.60;99.90;;;;;;5009519;28;20606;-46
2024/01/01 11:13:12;;;;;;;2.37;0.90;;;8.60;99.90;;;;;;5004333;28;20461;-47
2024/01/01 11:15:42;;;;;;;4.20;1.20;;;8.60;99.90;;;;;;5008262;28;20441;-46
2024/01/01 11:18:15;;;;;;;1.20;0.70;;;8.60;99.90;;;;;;5009134;28;20465;-47
2024/01/01 11:20:54;;;;;;;2.67;1.73;;;8.60;99.90;;;;;;5001502;28;20465;-46
2024/01/01 11:23:43;;;;;;;1.80;0.80;;;8.60;99.90;;;;;;4999985;28;20473;-45
2024/01/01 11:26:44;;;;;;;4.10;0.90;;;8.60;99.90;;;;;;5011479;28;20472;-46
2024/01/01 11:29:27;;;;;;;2.80;1.03;;;8.60;99.90;;;;;;4949059;28;20439;-44
2024/01/01 11:32:02;;;;;;;2.17;0.80;;;8.60;99.90;;;;;;4944453;28;20478;-45
2024/01/01 11:34:30;;;;;;;2.07;0.93;;;8.60;99.90;;;;;;4985114;28;20455;-45
2024/01/01 11:37:20;;;;;;;4.27;1.73;;;8.60;99.90;;;;;;5007568;28;20483;-45
2024/01/01 11:39:59;;;;;;;2.33;0.80;;;8.60;99.90;;;;;;5002928;28;20468;-44
2024/01/01 11:42:28;;;;;;;1.87;0.77;;;8.60;99.90;;;;;;5008075;28;20252;-45
2024/01/01 11:45:07;;;;;;;4.80;1.20;;;8.60;99.90;;;;;;5003591;28;21007;-46
2024/01/01 11:47:36;;;;;;;2.35;1.02;;;8.60;99.90;;;;;;5008126;28;20475;-45
2024/01/01 11:50:05;;;;;;;3.60;1.40;;;8.60;99.90;;;;;;5007801;28;20214;-45
2024/01/01 11:52:36;;;;;;;3.10;0.87;;;8.60;99.90;;;;;;5006522;28;20482;-44
2024/01/01 11:55:07;;;;;;;2.43;1.00;;;8.60;99.90;;;;;;5008633;28;20888;-45
2024/01/01 11:57:35;;;;;;;2.60;1.07;;;8.60;99.90;;;;;;5006637;28;20468;-44
2024/01/01 12:00:05;;;;;;;4.40;2.70;;;8.60;99.90;;;;;;5005670;28;20468;-45
2024/01/01 12:02:39;;;;;;;1.30;0.70;;;8.70;99.90;;;;;;5006196;28;20467;-45
2024/01/01 12:05:08;;;;;;;2.90;0.90;;;8.60;99.90;;;;;;5009173;28;20433;-44
2024/01/01 12:07:37;;;;;;;2.00;0.97;;;8.60;99.90;;;;;;5004531;28;20978;-45
2024/01/01 12:10:08;;;;;;;3.30;0.93;;;8.60;99.90;;;;;;5006490;28;20480;-45
2024/01/01 12:12:38;;;;;;;2.20;1.00;;;8.60;99.90;;;;;;5006578;28;20272;-45
2024/01/01 12:15:14;;;;;;;2.70;1.10;;;8.60;99.90;;;;;;5003903;28;20458;-45
2024/01/01 12:17:42;;;;;;;1.83;0.70;;;8.60;99.90;;;;;;5007953;28;20470;-45
2024/01/01 12:20:14;;;;;;;1.57;1.10;;;8.60;99.90;;;;;;5009573;28;20479;-45
2024/01/01 12:22:42;;;;;;;2.77;1.03;;;8.60;99.90;;;;;;5004152;28;21044;-46
2024/01/01 12:25:16;;;;;;;2.43;1.13;;;8.60;99.90;;;;;;5013168;28;20421;-45
2024/01/01 12:28:00;;;;;;;2.90;1.13;;;8.60;99.90;;;;;;5004204;28;20550;-46
2024/01/01 12:30:28;;;;;;;4.28;1.25;;;8.60;99.90;;;;;;5007273;28;20485;-46
2024/01/01 12:32:57;;;;;;;5.30;2.23;;;8.60;99.90;;;;;;5008116;28;20602;-45
2024/01/01 12:35:26;;;;;;;3.97;1.30;;;8.60;99.90;;;;;;5008419;28;21048;-45
2024/01/01 12:37:54;;;;;;;2.43;0.80;;;8.60;99.90;;;;;;5022221;28;20464;-45
2024/01/01 12:40:25;;;;;;;2.57;1.33;;;8.60;99.90;;;;;;5006713;28;20469;-45
2024/01/01 12:42:53;;;;;;;5.40;1.80;;;8.60;99.90;;;;;;5006818;28;20886;-45
2024/01/01 12:45:21;;;;;;;2.33;1.30;;;8.60;99.90;;;;;;5006189;28;20942;-45
2024/01/01 12:47:51;;;;;;;4.60;1.40;;;8.60;99.90;;;;;;5003576;28;20983;-45
2024/01/01 12:50:19;;;;;;;7.47;2.07;;;8.60;99.90;;;;;;5006287;28;20519;-46
2024/01/01 12:52:48;;;;;;;7.15;1.55;;;8.60;99.90;;;;;;5006479;28;20483;-45
2024/01/01 12:55:16;;;;;;;3.45;1.45;;;8.60;99.90;;;;;;5007965;28;20198;-46
2024/01/01 12:57:45;;;;;;;5.57;1.50;;;8.60;99.90;;;;;;5000873;28;20228;-48
2024/01/01 13:00:14;;;;;;;3.03;0.87;;;8.60;99.90;;;;;;5003796;28;20543;-47
2024/01/01 13:02:42;;;;;;;4.33;1.07;;;8.60;99.90;;;;;;5007799;28;20460;-46
2024/01/01 13:05:11;;;;;;;5.97;1.10;;;8.60;99.90;;;;;;5009229;28;20429;-46
2024/01/01 13:07:39;;;;;;;3.87;1.13;;;8.60;99.90;;;;;;5003381;28;20959;-47
2024/01/01 13:10:09;;;;;;;4.00;1.83;;;8.60;99.90;;;;;;5009680;28;20472;-46